createdAt,value
2023-10-08T00:01:20.453Z,19.38
2023-10-08T00:03:59.464Z,19.37
2023-10-08T00:06:27.741Z,19.38
2023-10-08T00:09:07.910Z,19.38
2023-10-08T00:11:42.457Z,19.38
2023-10-08T00:14:18.504Z,19.37
2023-10-08T00:16:51.046Z,19.38
2023-10-08T00:19:19.642Z,19.36
2023-10-08T00:21:48.879Z,19.35
2023-10-08T00:24:16.324Z,19.36
2023-10-08T00:26:44.070Z,19.34
2023-10-08T00:29:17.564Z,19.35
2023-10-08T00:31:47.100Z,19.36
2023-10-08T00:34:15.060Z,19.34
2023-10-08T00:36:44.627Z,19.34
2023-10-08T00:39:23.644Z,19.32
2023-10-08T00:42:05.939Z,19.31
2023-10-08T00:44:36.976Z,19.30
2023-10-08T00:47:06.901Z,19.30
2023-10-08T00:49:43.644Z,19.30
2023-10-08T00:52:16.244Z,19.31
2023-10-08T00:54:50.637Z,19.28
2023-10-08T00:57:24.423Z,19.31
2023-10-08T00:59:55.128Z,19.25
2023-10-08T01:02:50.102Z,19.28
2023-10-08T01:05:24.773Z,19.32
2023-10-08T01:07:53.881Z,19.28
2023-10-08T01:10:21.628Z,19.28
2023-10-08T01:13:04.421Z,19.29
2023-10-08T01:15:31.917Z,19.35
2023-10-08T01:18:01.609Z,19.36
2023-10-08T01:20:35.782Z,19.35
2023-10-08T01:23:11.648Z,19.39
2023-10-08T01:25:39.804Z,19.36
2023-10-08T01:28:19.573Z,19.39
2023-10-08T01:30:48.264Z,19.34
2023-10-08T01:33:18.885Z,19.33
2023-10-08T01:35:46.137Z,19.33
2023-10-08T01:38:17.623Z,19.29
2023-10-08T01:40:51.471Z,19.24
2023-10-08T01:43:19.504Z,19.19
2023-10-08T01:45:50.855Z,19.16
2023-10-08T01:48:21.560Z,19.20
2023-10-08T01:50:52.439Z,19.19
2023-10-08T01:53:21.602Z,19.23
2023-10-08T01:55:53.155Z,19.20
2023-10-08T01:58:22.276Z,19.15
2023-10-08T02:00:53.227Z,19.15
2023-10-08T02:03:20.712Z,19.09
2023-10-08T02:05:48.129Z,19.11
2023-10-08T02:08:18.313Z,19.12
2023-10-08T02:10:48.374Z,19.12
2023-10-08T02:13:17.222Z,19.11
2023-10-08T02:15:54.776Z,19.08
2023-10-08T02:18:25.047Z,19.14
2023-10-08T02:20:53.015Z,19.10
2023-10-08T02:23:20.336Z,19.11
2023-10-08T02:25:49.340Z,19.10
2023-10-08T02:28:17.240Z,19.04
2023-10-08T02:30:44.735Z,19.07
2023-10-08T02:33:18.708Z,19.11
2023-10-08T02:35:48.245Z,19.00
2023-10-08T02:38:25.472Z,19.05
2023-10-08T02:40:55.545Z,19.06
2023-10-08T02:43:22.845Z,19.03
2023-10-08T02:45:51.020Z,19.02
2023-10-08T02:48:19.551Z,19.06
2023-10-08T02:50:47.100Z,18.98
2023-10-08T02:53:19.423Z,18.97
2023-10-08T02:55:48.046Z,18.99
2023-10-08T02:58:16.659Z,18.97
2023-10-08T03:00:47.986Z,19.03
2023-10-08T03:03:17.153Z,19.02
2023-10-08T03:05:47.900Z,19.06
2023-10-08T03:08:23.229Z,19.06
2023-10-08T03:11:12.865Z,19.04
2023-10-08T03:13:40.113Z,19.02
2023-10-08T03:16:10.394Z,19.06
2023-10-08T03:18:38.725Z,19.02
2023-10-08T03:21:24.199Z,18.97
2023-10-08T03:23:53.616Z,19.01
2023-10-08T03:26:34.702Z,18.97
2023-10-08T03:29:17.108Z,19.07
2023-10-08T03:31:49.836Z,19.07
2023-10-08T03:34:28.459Z,19.05
2023-10-08T03:37:06.477Z,19.12
2023-10-08T03:39:52.586Z,19.14
2023-10-08T03:42:26.761Z,19.17
2023-10-08T03:44:57.189Z,19.18
2023-10-08T03:47:27.878Z,19.21
2023-10-08T03:49:55.596Z,19.10
2023-10-08T03:52:26.689Z,19.13
2023-10-08T03:55:17.149Z,19.13
2023-10-08T03:57:45.052Z,19.14
2023-10-08T04:00:19.923Z,19.14
2023-10-08T04:03:09.234Z,19.04
2023-10-08T04:05:57.064Z,19.10
2023-10-08T04:08:43.841Z,19.12
2023-10-08T04:11:34.767Z,19.08
2023-10-08T04:14:03.673Z,19.09
2023-10-08T04:16:38.504Z,19.02
2023-10-08T04:19:06.361Z,19.12
2023-10-08T04:21:35.178Z,19.18
2023-10-08T04:24:09.546Z,19.24
2023-10-08T04:26:36.907Z,19.26
2023-10-08T04:29:04.042Z,19.29
2023-10-08T04:31:37.664Z,19.25
2023-10-08T04:34:17.906Z,19.35
2023-10-08T04:36:46.910Z,19.38
2023-10-08T04:39:17.160Z,19.37
2023-10-08T04:41:44.764Z,19.36
2023-10-08T04:44:15.614Z,19.41
2023-10-08T04:46:48.832Z,19.38
2023-10-08T04:49:35.284Z,19.43
2023-10-08T04:52:14.949Z,19.35
2023-10-08T04:54:52.577Z,19.39
2023-10-08T04:57:24.022Z,19.12
2023-10-08T04:59:52.027Z,18.72
2023-10-08T05:02:37.662Z,18.55
2023-10-08T05:05:11.130Z,18.33
2023-10-08T05:08:01.416Z,18.04
2023-10-08T05:10:28.867Z,17.79
2023-10-08T05:13:17.019Z,17.68
2023-10-08T05:16:04.252Z,17.50
2023-10-08T05:18:49.941Z,17.28
2023-10-08T05:21:27.051Z,17.31
2023-10-08T05:24:09.895Z,17.28
2023-10-08T05:26:45.646Z,17.25
2023-10-08T05:29:32.508Z,17.18
2023-10-08T05:32:18.035Z,17.16
2023-10-08T05:34:57.608Z,17.05
2023-10-08T05:37:38.653Z,17.02
2023-10-08T05:40:35.524Z,16.93
2023-10-08T05:43:15.159Z,16.86
2023-10-08T05:45:54.038Z,16.85
2023-10-08T05:48:28.962Z,16.77
2023-10-08T05:50:56.872Z,16.68
2023-10-08T05:53:44.685Z,16.62
2023-10-08T05:56:30.298Z,16.51
2023-10-08T05:59:19.252Z,16.46
2023-10-08T06:01:47.703Z,16.37
2023-10-08T06:04:37.378Z,16.27
2023-10-08T06:07:18.246Z,16.11
2023-10-08T06:10:02.702Z,15.93
2023-10-08T06:12:40.727Z,15.78
2023-10-08T06:15:08.873Z,15.73
2023-10-08T06:17:59.210Z,15.51
2023-10-08T06:20:28.131Z,15.26
2023-10-08T06:23:02.122Z,15.12
2023-10-08T06:25:29.305Z,15.01
2023-10-08T06:27:57.037Z,14.90
2023-10-08T06:30:30.079Z,14.70
2023-10-08T06:32:58.016Z,14.64
2023-10-08T06:35:26.685Z,14.55
2023-10-08T06:37:57.148Z,14.51
2023-10-08T06:40:41.944Z,14.52
2023-10-08T06:43:25.982Z,14.41
2023-10-08T06:45:54.114Z,14.43
2023-10-08T06:48:26.795Z,14.45
2023-10-08T06:51:08.681Z,14.43
2023-10-08T06:53:36.194Z,14.43
2023-10-08T06:56:05.615Z,14.46
2023-10-08T06:58:33.561Z,14.44
2023-10-08T07:01:05.918Z,14.48
2023-10-08T07:03:35.365Z,14.51
2023-10-08T07:06:17.772Z,14.50
2023-10-08T07:08:47.990Z,14.42
2023-10-08T07:11:15.148Z,14.37
2023-10-08T07:13:43.727Z,14.27
2023-10-08T07:16:13.326Z,14.23
2023-10-08T07:18:40.779Z,14.19
2023-10-08T07:21:13.823Z,14.18
2023-10-08T07:24:00.230Z,14.11
2023-10-08T07:26:37.659Z,13.90
2023-10-08T07:29:10.047Z,13.81
2023-10-08T07:31:42.686Z,13.78
2023-10-08T07:34:19.531Z,13.75
2023-10-08T07:36:50.619Z,13.85
2023-10-08T07:39:29.772Z,13.95
2023-10-08T07:41:57.017Z,13.90
2023-10-08T07:44:25.452Z,13.88
2023-10-08T07:46:55.859Z,13.93
2023-10-08T07:49:26.742Z,13.93
2023-10-08T07:51:53.842Z,13.89
2023-10-08T07:54:28.904Z,13.87
2023-10-08T07:57:16.070Z,13.82
2023-10-08T07:59:59.302Z,13.89
2023-10-08T08:02:28.056Z,13.92
2023-10-08T08:04:55.378Z,13.84
2023-10-08T08:07:23.099Z,13.89
2023-10-08T08:10:13.527Z,13.87
2023-10-08T08:12:42.290Z,13.87
2023-10-08T08:15:16.297Z,13.94
2023-10-08T08:17:45.418Z,13.84
2023-10-08T08:20:19.484Z,13.77
2023-10-08T08:22:51.138Z,13.79
2023-10-08T08:25:27.724Z,13.78
2023-10-08T08:27:55.204Z,13.83
2023-10-08T08:30:27.746Z,13.86
2023-10-08T08:32:57.365Z,13.93
2023-10-08T08:35:25.511Z,13.92
2023-10-08T08:38:01.029Z,13.89
2023-10-08T08:40:30.275Z,13.88
2023-10-08T08:43:00.188Z,13.89
2023-10-08T08:45:34.475Z,13.89
2023-10-08T08:48:02.743Z,13.87
2023-10-08T08:50:30.298Z,13.89
2023-10-08T08:52:57.478Z,13.90
2023-10-08T08:55:28.823Z,13.94
2023-10-08T08:57:56.914Z,13.91
2023-10-08T09:00:30.237Z,13.90
2023-10-08T09:02:57.631Z,13.91
2023-10-08T09:05:24.975Z,13.93
2023-10-08T09:08:23.761Z,13.93
2023-10-08T09:10:54.060Z,13.95
2023-10-08T09:13:26.691Z,13.96
2023-10-08T09:16:05.173Z,13.99
2023-10-08T09:18:33.503Z,13.94
2023-10-08T09:21:11.880Z,13.90
2023-10-08T09:23:45.485Z,13.80
2023-10-08T09:26:15.194Z,13.76
2023-10-08T09:28:50.818Z,13.80
2023-10-08T09:31:19.139Z,13.82
2023-10-08T09:33:56.422Z,13.85
2023-10-08T09:36:33.081Z,13.90
2023-10-08T09:39:08.246Z,13.82
2023-10-08T09:41:37.946Z,13.82
2023-10-08T09:44:11.225Z,13.83
2023-10-08T09:46:43.471Z,13.82
2023-10-08T09:49:15.645Z,13.80
2023-10-08T09:51:44.822Z,13.84
2023-10-08T09:54:38.806Z,13.82
2023-10-08T09:57:07.799Z,13.78
2023-10-08T09:59:42.507Z,13.80
2023-10-08T10:02:11.690Z,13.86
2023-10-08T10:04:45.662Z,13.95
2023-10-08T10:07:17.945Z,13.95
2023-10-08T10:09:47.988Z,14.00
2023-10-08T10:12:26.903Z,13.98
2023-10-08T10:14:56.649Z,13.95
2023-10-08T10:17:40.739Z,13.95
2023-10-08T10:20:15.558Z,13.98
2023-10-08T10:22:45.452Z,14.02
2023-10-08T10:25:17.996Z,14.06
2023-10-08T10:27:54.406Z,14.06
2023-10-08T10:30:24.323Z,14.13
2023-10-08T10:32:56.442Z,14.19
2023-10-08T10:35:24.820Z,14.18
2023-10-08T10:37:56.536Z,14.19
2023-10-08T10:40:31.128Z,14.18
2023-10-08T10:42:59.141Z,14.18
2023-10-08T10:45:44.089Z,14.14
2023-10-08T10:48:20.549Z,14.15
2023-10-08T10:51:07.907Z,14.14
2023-10-08T10:53:57.668Z,14.19
2023-10-08T10:56:31.190Z,14.25
2023-10-08T10:59:16.789Z,14.26
2023-10-08T11:01:53.865Z,14.30
2023-10-08T11:04:30.120Z,14.30
2023-10-08T11:07:01.951Z,14.35
2023-10-08T11:09:45.647Z,14.39
2023-10-08T11:12:19.964Z,14.48
2023-10-08T11:14:53.380Z,14.50
2023-10-08T11:17:27.998Z,14.52
2023-10-08T11:19:55.542Z,14.57
2023-10-08T11:22:24.371Z,14.58
2023-10-08T11:24:55.607Z,14.59
2023-10-08T11:27:38.824Z,14.63
2023-10-08T11:30:12.666Z,14.74
2023-10-08T11:32:42.581Z,14.78
2023-10-08T11:35:17.770Z,14.71
2023-10-08T11:37:52.138Z,14.71
2023-10-08T11:40:47.871Z,14.58
2023-10-08T11:43:17.199Z,14.64
2023-10-08T11:45:54.323Z,14.73
2023-10-08T11:48:29.936Z,14.79
2023-10-08T11:51:02.550Z,14.83
2023-10-08T11:53:30.008Z,14.82
2023-10-08T11:55:58.461Z,14.83
2023-10-08T11:58:38.450Z,14.87
2023-10-08T12:01:06.230Z,14.91
2023-10-08T12:03:36.392Z,14.95
2023-10-08T12:06:06.483Z,14.97
2023-10-08T12:08:40.418Z,14.95
2023-10-08T12:11:12.777Z,14.94
2023-10-08T12:13:45.490Z,15.02
2023-10-08T12:16:22.412Z,15.11
2023-10-08T12:18:54.829Z,15.11
2023-10-08T12:21:22.972Z,15.10
2023-10-08T12:23:52.572Z,15.19
2023-10-08T12:26:20.524Z,15.27
2023-10-08T12:28:51.763Z,15.29
2023-10-08T12:31:25.791Z,15.36
2023-10-08T12:34:01.320Z,15.40
2023-10-08T12:36:34.008Z,15.36
2023-10-08T12:39:05.458Z,15.33
2023-10-08T12:41:32.780Z,15.34
2023-10-08T12:43:59.893Z,15.31
2023-10-08T12:46:27.532Z,15.32
2023-10-08T12:48:56.203Z,15.32
2023-10-08T12:51:27.208Z,15.38
2023-10-08T12:54:05.567Z,15.41
2023-10-08T12:56:37.487Z,15.36
2023-10-08T12:59:07.978Z,15.38
2023-10-08T13:01:37.704Z,15.30
2023-10-08T13:04:08.537Z,15.27
2023-10-08T13:06:39.726Z,15.29
2023-10-08T13:09:16.252Z,15.26
2023-10-08T13:11:44.599Z,15.20
2023-10-08T13:14:12.807Z,15.19
2023-10-08T13:16:41.068Z,15.25
2023-10-08T13:19:10.079Z,15.27
2023-10-08T13:21:38.378Z,15.24
2023-10-08T13:24:09.763Z,15.30
2023-10-08T13:26:39.973Z,15.35
2023-10-08T13:29:10.655Z,15.39
2023-10-08T13:31:38.418Z,15.45
2023-10-08T13:34:09.909Z,15.53
2023-10-08T13:36:41.412Z,15.54
2023-10-08T13:39:11.566Z,15.52
2023-10-08T13:41:43.011Z,15.56
2023-10-08T13:44:10.389Z,15.61
2023-10-08T13:46:38.052Z,15.66
2023-10-08T13:49:09.886Z,15.67
2023-10-08T13:51:39.859Z,15.70
2023-10-08T13:54:11.065Z,15.74
2023-10-08T13:56:39.350Z,15.74
2023-10-08T13:59:15.872Z,15.75
2023-10-08T14:01:53.146Z,15.79
2023-10-08T14:04:21.664Z,15.77
2023-10-08T14:06:53.854Z,15.81
2023-10-08T14:09:38.754Z,15.81
2023-10-08T14:12:08.788Z,15.75
2023-10-08T14:14:36.641Z,15.75
2023-10-08T14:17:07.910Z,15.79
2023-10-08T14:19:47.601Z,15.82
2023-10-08T14:22:16.261Z,15.83
2023-10-08T14:24:46.823Z,15.86
2023-10-08T14:27:17.217Z,15.88
2023-10-08T14:29:51.644Z,15.83
2023-10-08T14:32:20.894Z,15.83
2023-10-08T14:34:47.830Z,15.82
2023-10-08T14:37:34.130Z,15.81
2023-10-08T14:40:19.695Z,15.76
2023-10-08T14:43:05.033Z,15.70
2023-10-08T14:45:40.633Z,15.65
2023-10-08T14:48:12.924Z,15.63
2023-10-08T14:50:40.593Z,15.61
2023-10-08T14:53:08.120Z,15.57
2023-10-08T14:55:37.584Z,15.55
2023-10-08T14:58:09.763Z,15.54
2023-10-08T15:00:39.017Z,15.53
2023-10-08T15:03:07.052Z,15.52
2023-10-08T15:05:34.440Z,15.50
2023-10-08T15:08:01.668Z,15.53
2023-10-08T15:10:30.742Z,15.50
2023-10-08T15:12:58.379Z,15.50
2023-10-08T15:15:26.597Z,15.49
2023-10-08T15:17:55.814Z,15.52
2023-10-08T15:20:25.103Z,15.53
2023-10-08T15:22:52.913Z,15.54
2023-10-08T15:25:20.974Z,15.53
2023-10-08T15:27:50.201Z,15.50
2023-10-08T15:30:23.340Z,15.49
2023-10-08T15:32:51.427Z,15.50
2023-10-08T15:35:25.876Z,15.48
2023-10-08T15:37:55.692Z,15.48
2023-10-08T15:40:24.213Z,15.46
2023-10-08T15:42:58.276Z,15.46
2023-10-08T15:45:26.672Z,15.45
2023-10-08T15:47:55.334Z,15.46
2023-10-08T15:50:26.587Z,15.47
2023-10-08T15:52:55.992Z,15.44
2023-10-08T15:55:24.955Z,15.45
2023-10-08T15:57:54.146Z,15.46
2023-10-08T16:00:21.844Z,15.42
2023-10-08T16:02:49.549Z,15.42
2023-10-08T16:05:18.190Z,15.41
2023-10-08T16:07:47.705Z,15.39
2023-10-08T16:10:14.911Z,15.38
2023-10-08T16:12:42.983Z,15.37
2023-10-08T16:15:10.540Z,15.36
2023-10-08T16:17:40.209Z,15.34
2023-10-08T16:20:15.618Z,15.31
2023-10-08T16:22:49.017Z,15.29
2023-10-08T16:25:17.265Z,15.28
2023-10-08T16:27:50.841Z,15.24
2023-10-08T16:30:24.543Z,15.22
2023-10-08T16:32:57.200Z,15.22
2023-10-08T16:35:32.210Z,15.21
2023-10-08T16:38:27.717Z,15.20
2023-10-08T16:40:57.431Z,15.20
2023-10-08T16:43:24.756Z,15.17
2023-10-08T16:45:52.118Z,15.15
2023-10-08T16:48:22.320Z,15.11
2023-10-08T16:50:49.807Z,15.09
2023-10-08T16:53:17.487Z,15.09
2023-10-08T16:55:47.889Z,15.11
2023-10-08T16:58:15.165Z,15.09
2023-10-08T17:00:42.232Z,15.08
2023-10-08T17:03:09.531Z,15.05
2023-10-08T17:05:36.625Z,15.07
2023-10-08T17:08:05.496Z,15.02
2023-10-08T17:10:32.638Z,14.94
2023-10-08T17:12:59.951Z,14.89
2023-10-08T17:15:27.671Z,14.85
2023-10-08T17:17:56.941Z,14.85
2023-10-08T17:20:24.558Z,14.83
2023-10-08T17:22:51.863Z,14.76
2023-10-08T17:25:18.842Z,14.76
2023-10-08T17:27:46.789Z,14.76
2023-10-08T17:30:20.559Z,14.76
2023-10-08T17:32:49.896Z,14.76
2023-10-08T17:35:17.847Z,14.71
2023-10-08T17:37:49.439Z,14.66
2023-10-08T17:40:17.009Z,14.66
2023-10-08T17:42:44.355Z,14.64
2023-10-08T17:45:15.948Z,14.63
2023-10-08T17:47:44.714Z,14.64
2023-10-08T17:50:12.339Z,14.59
2023-10-08T17:52:39.898Z,14.54
2023-10-08T17:55:08.078Z,14.50
2023-10-08T17:57:35.665Z,14.47
2023-10-08T18:00:12.009Z,14.45
2023-10-08T18:02:42.213Z,14.46
2023-10-08T18:05:16.661Z,14.48
2023-10-08T18:07:51.052Z,14.46
2023-10-08T18:10:21.782Z,14.42
2023-10-08T18:12:51.398Z,14.41
2023-10-08T18:15:24.045Z,14.43
2023-10-08T18:17:56.143Z,14.46
2023-10-08T18:20:37.123Z,14.45
2023-10-08T18:23:04.865Z,14.48
2023-10-08T18:25:53.783Z,14.41
2023-10-08T18:28:21.113Z,14.39
2023-10-08T18:30:48.154Z,14.34
2023-10-08T18:33:58.226Z,14.30
2023-10-08T18:36:25.563Z,14.24
2023-10-08T18:38:52.857Z,14.21
2023-10-08T18:41:22.005Z,14.18
2023-10-08T18:43:49.644Z,14.16
2023-10-08T18:46:17.281Z,14.10
2023-10-08T18:48:44.776Z,14.08
2023-10-08T18:51:14.624Z,14.07
2023-10-08T18:53:44.649Z,14.07
2023-10-08T18:56:16.051Z,14.04
2023-10-08T18:58:46.754Z,14.04
2023-10-08T19:01:15.619Z,14.06
2023-10-08T19:03:46.237Z,14.02
2023-10-08T19:06:14.086Z,14.06
2023-10-08T19:08:42.019Z,14.06
2023-10-08T19:11:09.282Z,14.05
2023-10-08T19:13:38.411Z,14.07
2023-10-08T19:16:08.660Z,14.07
2023-10-08T19:18:37.734Z,14.08
2023-10-08T19:21:05.669Z,14.07
2023-10-08T19:23:37.542Z,14.04
2023-10-08T19:26:05.485Z,14.03
2023-10-08T19:28:33.917Z,13.98
2023-10-08T19:31:04.151Z,14.03
2023-10-08T19:33:32.109Z,14.01
2023-10-08T19:36:00.835Z,13.98
2023-10-08T19:38:29.075Z,13.96
2023-10-08T19:40:56.376Z,13.93
2023-10-08T19:43:23.872Z,13.93
2023-10-08T19:45:52.228Z,13.91
2023-10-08T19:48:20.235Z,13.91
2023-10-08T19:50:51.852Z,13.89
2023-10-08T19:53:20.534Z,13.87
2023-10-08T19:55:51.719Z,13.85
2023-10-08T19:58:20.878Z,13.85
2023-10-08T20:00:51.254Z,13.86
2023-10-08T20:03:21.212Z,13.87
2023-10-08T20:05:48.748Z,13.82
2023-10-08T20:08:19.669Z,13.83
2023-10-08T20:10:49.363Z,13.83
2023-10-08T20:13:18.237Z,13.82
2023-10-08T20:15:52.248Z,13.78
2023-10-08T20:18:24.831Z,13.74
2023-10-08T20:20:55.087Z,13.71
2023-10-08T20:23:23.873Z,13.76
2023-10-08T20:25:54.052Z,13.80
2023-10-08T20:28:26.839Z,13.83
2023-10-08T20:30:54.804Z,13.85
2023-10-08T20:33:22.275Z,13.84
2023-10-08T20:35:53.594Z,13.86
2023-10-08T20:38:21.036Z,13.83
2023-10-08T20:40:48.115Z,13.82
2023-10-08T20:43:18.477Z,13.84
2023-10-08T20:45:46.701Z,13.82
2023-10-08T20:48:15.574Z,13.83
2023-10-08T20:50:43.852Z,13.84
2023-10-08T20:53:14.923Z,13.85
2023-10-08T20:55:43.179Z,13.82
2023-10-08T20:58:11.641Z,13.76
2023-10-08T21:00:40.971Z,13.76
2023-10-08T21:03:13.538Z,13.73
2023-10-08T21:05:44.185Z,13.73
2023-10-08T21:08:13.002Z,13.73
2023-10-08T21:13:14.819Z,13.57
2023-10-08T21:15:42.309Z,13.52
2023-10-08T21:18:09.566Z,13.49
2023-10-08T21:20:38.802Z,13.42
2023-10-08T21:23:06.658Z,13.39
2023-10-08T21:25:33.995Z,13.39
2023-10-08T21:28:02.142Z,13.38
2023-10-08T21:30:29.861Z,13.40
2023-10-08T21:32:57.717Z,13.40
2023-10-08T21:35:26.132Z,13.41
2023-10-08T21:37:53.444Z,13.47
2023-10-08T21:40:22.275Z,13.52
2023-10-08T21:42:52.755Z,13.48
2023-10-08T21:45:20.720Z,13.54
2023-10-08T21:47:49.617Z,13.59
2023-10-08T21:50:20.514Z,13.62
2023-10-08T21:52:53.404Z,13.62
2023-10-08T21:55:22.974Z,13.55
2023-10-08T21:57:51.404Z,13.59
2023-10-08T22:00:23.514Z,13.65
2023-10-08T22:02:59.152Z,13.68
2023-10-08T22:05:31.648Z,13.67
2023-10-08T22:08:00.355Z,13.73
2023-10-08T22:10:29.699Z,13.77
2023-10-08T22:13:00.029Z,13.76
2023-10-08T22:15:29.086Z,13.75
2023-10-08T22:18:08.538Z,13.71
2023-10-08T22:20:38.567Z,13.70
2023-10-08T22:23:07.461Z,13.68
2023-10-08T22:25:37.884Z,13.59
2023-10-08T22:28:19.222Z,13.52
2023-10-08T22:30:55.656Z,13.51
2023-10-08T22:33:35.422Z,13.49
2023-10-08T22:36:19.915Z,13.53
2023-10-08T22:38:49.901Z,13.60
2023-10-08T22:41:17.324Z,13.58
2023-10-08T22:43:44.392Z,13.56
2023-10-08T22:46:13.137Z,13.52
2023-10-08T22:48:44.668Z,13.45
2023-10-08T22:51:25.861Z,13.48
2023-10-08T22:53:57.016Z,13.49
2023-10-08T22:56:25.951Z,13.48
2023-10-08T22:58:57.444Z,13.45
2023-10-08T23:01:28.456Z,13.44
2023-10-08T23:03:57.470Z,13.44
2023-10-08T23:06:25.622Z,13.46
2023-10-08T23:08:55.729Z,13.49
2023-10-08T23:11:22.993Z,13.50
2023-10-08T23:13:51.624Z,13.50
2023-10-08T23:16:22.597Z,13.48
2023-10-08T23:18:56.248Z,13.45
2023-10-08T23:21:26.958Z,13.45
2023-10-08T23:23:54.220Z,13.39
2023-10-08T23:26:22.822Z,13.40
2023-10-08T23:28:50.149Z,13.41
2023-10-08T23:31:18.970Z,13.44
2023-10-08T23:33:50.107Z,13.42
2023-10-08T23:36:28.077Z,13.39
2023-10-08T23:39:07.567Z,13.39
2023-10-08T23:41:48.944Z,13.34
2023-10-08T23:44:19.739Z,13.35
2023-10-08T23:46:47.106Z,13.38
2023-10-08T23:49:17.611Z,13.36
2023-10-08T23:51:52.838Z,13.34
2023-10-08T23:54:28.814Z,13.41
2023-10-08T23:57:00.822Z,13.39
2023-10-08T23:59:42.923Z,13.36
